createdAt,value
2023-11-17T00:01:35.699Z,74.04
2023-11-17T00:04:07.682Z,73.77
2023-11-17T00:06:39.162Z,73.47
2023-11-17T00:09:12.054Z,73.46
2023-11-17T00:11:44.468Z,73.38
2023-11-17T00:14:15.841Z,73.48
2023-11-17T00:16:47.281Z,73.39
2023-11-17T00:19:18.717Z,73.40
2023-11-17T00:21:50.053Z,73.50
2023-11-17T00:24:21.390Z,73.53
2023-11-17T00:26:52.786Z,73.46
2023-11-17T00:29:24.558Z,73.52
2023-11-17T00:31:56.559Z,73.58
2023-11-17T00:34:28.212Z,73.33
2023-11-17T00:37:03.436Z,73.30
2023-11-17T00:39:38.268Z,73.22
2023-11-17T00:42:11.540Z,73.09
2023-11-17T00:44:42.803Z,73.17
2023-11-17T00:47:14.120Z,73.04
2023-11-17T00:49:45.479Z,73.16
2023-11-17T00:52:16.825Z,73.06
2023-11-17T00:54:50.827Z,73.01
2023-11-17T00:57:23.082Z,72.99
2023-11-17T00:59:54.391Z,72.95
2023-11-17T01:02:26.900Z,73.18
2023-11-17T01:04:58.340Z,73.14
2023-11-17T01:07:30.593Z,73.03
2023-11-17T01:10:02.054Z,73.09
2023-11-17T01:12:33.457Z,73.22
2023-11-17T01:15:05.685Z,73.35
2023-11-17T01:17:37.058Z,73.34
2023-11-17T01:20:11.087Z,73.51
2023-11-17T01:22:42.628Z,73.46
2023-11-17T01:25:14.342Z,73.52
2023-11-17T01:27:47.150Z,73.59
2023-11-17T01:30:18.633Z,73.72
2023-11-17T01:32:50.384Z,73.77
2023-11-17T01:35:22.257Z,73.64
2023-11-17T01:37:53.856Z,73.55
2023-11-17T01:40:25.387Z,73.63
2023-11-17T01:43:06.857Z,73.74
2023-11-17T01:45:38.975Z,73.74
2023-11-17T01:48:10.964Z,73.71
2023-11-17T01:50:42.640Z,73.57
2023-11-17T01:53:14.524Z,73.62
2023-11-17T01:55:46.290Z,73.84
2023-11-17T01:58:18.577Z,73.68
2023-11-17T02:00:49.962Z,73.72
2023-11-17T02:03:23.160Z,73.74
2023-11-17T02:06:06.043Z,73.73
2023-11-17T02:08:48.267Z,73.65
2023-11-17T02:11:27.423Z,73.75
2023-11-17T02:14:06.824Z,73.75
2023-11-17T02:16:39.528Z,73.82
2023-11-17T02:19:23.137Z,73.84
2023-11-17T02:21:56.996Z,74.09
2023-11-17T02:24:32.440Z,74.01
2023-11-17T02:27:20.469Z,73.92
2023-11-17T02:29:52.180Z,73.87
2023-11-17T02:32:25.774Z,74.11
2023-11-17T02:34:59.442Z,74.13
2023-11-17T02:37:31.146Z,74.30
2023-11-17T02:40:19.459Z,74.33
2023-11-17T02:42:52.610Z,74.44
2023-11-17T02:45:26.534Z,74.35
2023-11-17T02:47:58.241Z,74.26
2023-11-17T02:50:39.953Z,74.31
2023-11-17T02:53:25.313Z,74.44
2023-11-17T02:55:58.274Z,74.41
2023-11-17T02:58:34.197Z,74.51
2023-11-17T03:01:06.522Z,74.58
2023-11-17T03:03:38.424Z,74.65
2023-11-17T03:06:10.828Z,74.85
2023-11-17T03:08:42.240Z,74.73
2023-11-17T03:11:13.960Z,74.75
2023-11-17T03:13:46.217Z,74.83
2023-11-17T03:16:25.519Z,74.74
2023-11-17T03:18:57.293Z,74.65
2023-11-17T03:21:29.556Z,74.68
2023-11-17T03:24:00.976Z,74.62
2023-11-17T03:26:32.261Z,74.59
2023-11-17T03:29:06.072Z,74.63
2023-11-17T03:31:37.615Z,74.71
2023-11-17T03:34:10.800Z,74.75
2023-11-17T03:36:42.204Z,75.04
2023-11-17T03:39:14.499Z,75.23
2023-11-17T03:41:46.709Z,75.27
2023-11-17T03:44:18.368Z,75.20
2023-11-17T03:46:50.759Z,75.02
2023-11-17T03:49:22.551Z,74.95
2023-11-17T03:51:55.683Z,74.91
2023-11-17T03:54:27.175Z,74.88
2023-11-17T03:56:58.664Z,74.96
2023-11-17T03:59:31.387Z,74.92
2023-11-17T04:02:03.294Z,75.08
2023-11-17T04:04:35.594Z,74.96
2023-11-17T04:07:08.204Z,75.16
2023-11-17T04:09:39.488Z,75.24
2023-11-17T04:12:12.121Z,75.36
2023-11-17T04:14:44.011Z,75.41
2023-11-17T04:17:15.991Z,75.55
2023-11-17T04:19:47.774Z,75.56
2023-11-17T04:22:19.099Z,75.39
2023-11-17T04:24:50.493Z,75.74
2023-11-17T04:27:22.035Z,75.64
2023-11-17T04:29:53.462Z,75.72
2023-11-17T04:32:24.811Z,75.64
2023-11-17T04:34:56.264Z,75.63
2023-11-17T04:37:28.309Z,75.62
2023-11-17T04:39:59.679Z,75.63
2023-11-17T04:42:31.511Z,75.57
2023-11-17T04:45:04.466Z,75.61
2023-11-17T04:47:34.402Z,75.53
2023-11-17T04:50:09.877Z,75.44
2023-11-17T04:52:41.246Z,75.36
2023-11-17T04:55:14.652Z,75.47
2023-11-17T04:57:46.436Z,75.44
2023-11-17T05:00:18.362Z,75.36
2023-11-17T05:02:49.980Z,75.26
2023-11-17T05:05:21.650Z,75.20
2023-11-17T05:07:53.023Z,75.34
2023-11-17T05:10:25.364Z,75.40
2023-11-17T05:12:57.003Z,75.37
2023-11-17T05:15:29.037Z,75.53
2023-11-17T05:18:00.497Z,75.55
2023-11-17T05:20:32.461Z,75.55
2023-11-17T05:23:05.077Z,75.44
2023-11-17T05:25:37.544Z,75.59
2023-11-17T05:28:10.180Z,75.61
2023-11-17T05:30:42.301Z,75.58
2023-11-17T05:33:19.552Z,75.41
2023-11-17T05:35:51.278Z,75.38
2023-11-17T05:38:22.849Z,75.37
2023-11-17T05:40:54.674Z,75.32
2023-11-17T05:43:26.277Z,75.12
2023-11-17T05:46:00.586Z,75.07
2023-11-17T05:48:32.049Z,75.09
2023-11-17T05:51:07.143Z,75.14
2023-11-17T05:53:39.662Z,75.07
2023-11-17T05:56:12.842Z,75.06
2023-11-17T05:58:44.226Z,75.22
2023-11-17T06:01:15.648Z,74.97
2023-11-17T06:03:47.166Z,75.08
2023-11-17T06:06:18.660Z,75.27
2023-11-17T06:08:50.273Z,75.12
2023-11-17T06:11:28.304Z,75.13
2023-11-17T06:13:59.669Z,74.91
2023-11-17T06:16:31.141Z,74.78
2023-11-17T06:19:03.059Z,74.80
2023-11-17T06:21:34.448Z,74.70
2023-11-17T06:24:06.279Z,74.64
2023-11-17T06:26:37.637Z,74.69
2023-11-17T06:29:09.024Z,74.72
2023-11-17T06:31:40.394Z,74.63
2023-11-17T06:34:12.417Z,74.65
2023-11-17T06:36:45.616Z,74.69
2023-11-17T06:39:19.136Z,74.74
2023-11-17T06:41:52.197Z,74.80
2023-11-17T06:44:23.251Z,75.03
2023-11-17T06:46:57.300Z,74.99
2023-11-17T06:49:28.733Z,75.07
2023-11-17T06:52:00.080Z,75.08
2023-11-17T06:54:31.778Z,74.96
2023-11-17T06:57:03.086Z,75.06
2023-11-17T06:59:34.404Z,75.13
2023-11-17T07:02:06.904Z,75.12
2023-11-17T07:04:38.302Z,75.34
2023-11-17T07:07:11.818Z,75.51
2023-11-17T07:09:44.132Z,75.52
2023-11-17T07:12:15.546Z,75.60
2023-11-17T07:14:49.084Z,75.54
2023-11-17T07:17:20.521Z,75.48
2023-11-17T07:19:51.828Z,75.40
2023-11-17T07:22:23.203Z,75.50
2023-11-17T07:24:54.657Z,75.43
2023-11-17T07:27:25.984Z,75.28
2023-11-17T07:29:58.355Z,75.34
2023-11-17T07:32:31.701Z,75.41
2023-11-17T07:35:03.177Z,75.41
2023-11-17T07:37:35.824Z,75.44
2023-11-17T07:40:10.881Z,75.38
2023-11-17T07:42:42.270Z,75.43
2023-11-17T07:45:14.096Z,75.43
2023-11-17T07:47:45.474Z,75.46
2023-11-17T07:50:17.117Z,75.60
2023-11-17T07:52:48.377Z,75.63
2023-11-17T07:55:20.298Z,75.67
2023-11-17T07:57:51.660Z,75.70
2023-11-17T08:00:28.910Z,75.82
2023-11-17T08:03:00.844Z,75.81
2023-11-17T08:05:32.405Z,75.81
2023-11-17T08:08:03.818Z,75.86
2023-11-17T08:10:35.306Z,75.97
2023-11-17T08:13:07.083Z,76.00
2023-11-17T08:15:38.477Z,75.89
2023-11-17T08:18:10.901Z,76.00
2023-11-17T08:20:42.606Z,76.04
2023-11-17T08:23:15.405Z,76.13
2023-11-17T08:25:46.926Z,76.09
2023-11-17T08:28:18.620Z,76.08
2023-11-17T08:30:53.189Z,75.95
2023-11-17T08:33:24.899Z,76.00
2023-11-17T08:35:58.439Z,75.89
2023-11-17T08:38:30.448Z,75.90
2023-11-17T08:41:01.746Z,76.14
2023-11-17T08:43:33.106Z,76.04
2023-11-17T08:46:04.840Z,76.10
2023-11-17T08:48:37.070Z,76.08
2023-11-17T08:51:08.675Z,76.23
2023-11-17T08:53:40.087Z,76.15
2023-11-17T08:56:12.241Z,76.07
2023-11-17T08:58:45.005Z,75.96
2023-11-17T09:01:17.041Z,75.63
2023-11-17T09:03:48.981Z,75.16
2023-11-17T09:06:20.327Z,75.33
2023-11-17T09:08:51.865Z,75.51
2023-11-17T09:11:23.161Z,75.47
2023-11-17T09:13:54.963Z,75.42
2023-11-17T09:16:33.968Z,75.35
2023-11-17T09:19:12.642Z,75.43
2023-11-17T09:21:44.186Z,75.21
2023-11-17T09:24:15.913Z,75.25
2023-11-17T09:26:47.488Z,75.41
2023-11-17T09:29:18.879Z,75.56
2023-11-17T09:31:50.204Z,75.54
2023-11-17T09:34:21.753Z,75.33
2023-11-17T09:36:53.339Z,74.90
2023-11-17T09:39:24.867Z,74.81
2023-11-17T09:41:58.311Z,74.50
2023-11-17T09:44:34.580Z,74.45
2023-11-17T09:47:19.771Z,74.29
2023-11-17T09:49:55.508Z,74.19
2023-11-17T09:52:28.619Z,74.12
2023-11-17T09:55:00.539Z,74.24
2023-11-17T09:57:35.746Z,74.00
2023-11-17T10:00:18.709Z,73.94
2023-11-17T10:02:55.333Z,73.74
2023-11-17T10:05:27.894Z,73.55
2023-11-17T10:08:02.900Z,73.32
2023-11-17T10:10:38.514Z,73.31
2023-11-17T10:13:13.406Z,73.01
2023-11-17T10:15:47.549Z,73.02
2023-11-17T10:18:25.809Z,73.21
2023-11-17T10:20:59.691Z,73.11
2023-11-17T10:23:33.180Z,73.18
2023-11-17T10:26:05.806Z,73.11
2023-11-17T10:28:38.042Z,72.81
2023-11-17T10:31:12.788Z,72.68
2023-11-17T10:33:45.893Z,71.99
2023-11-17T10:36:17.999Z,71.54
2023-11-17T10:39:04.900Z,71.31
2023-11-17T10:41:36.363Z,71.46
2023-11-17T10:44:13.458Z,71.78
2023-11-17T10:46:45.582Z,71.13
2023-11-17T10:49:20.465Z,70.30
2023-11-17T10:51:53.015Z,69.99
2023-11-17T10:54:24.439Z,69.13
2023-11-17T10:56:55.805Z,68.05
2023-11-17T10:59:44.595Z,67.64
2023-11-17T11:02:20.949Z,67.40
2023-11-17T11:04:52.814Z,67.63
2023-11-17T11:07:24.558Z,67.43
2023-11-17T11:09:56.032Z,67.93
2023-11-17T11:12:28.418Z,67.27
2023-11-17T11:14:59.757Z,67.27
2023-11-17T11:17:34.046Z,67.33
2023-11-17T11:20:21.583Z,67.29
2023-11-17T11:22:56.772Z,66.72
2023-11-17T11:25:29.298Z,67.00
2023-11-17T11:28:04.428Z,66.79
2023-11-17T11:30:38.261Z,66.96
2023-11-17T11:33:11.679Z,66.76
2023-11-17T11:35:43.382Z,66.82
2023-11-17T11:38:14.708Z,66.73
2023-11-17T11:40:49.407Z,66.66
2023-11-17T11:43:21.069Z,66.50
2023-11-17T11:45:53.929Z,66.35
2023-11-17T11:48:31.830Z,66.29
2023-11-17T11:51:03.563Z,66.19
2023-11-17T11:53:41.079Z,66.15
2023-11-17T11:56:16.544Z,66.12
2023-11-17T11:58:49.866Z,65.81
2023-11-17T12:01:23.461Z,65.72
2023-11-17T12:03:59.326Z,65.68
2023-11-17T12:06:32.109Z,65.78
2023-11-17T12:09:09.006Z,65.99
2023-11-17T12:11:46.925Z,65.89
2023-11-17T12:14:19.801Z,65.32
2023-11-17T12:16:56.688Z,65.39
2023-11-17T12:19:32.174Z,65.44
2023-11-17T12:22:06.082Z,65.47
2023-11-17T12:24:38.728Z,65.52
2023-11-17T12:27:10.225Z,65.32
2023-11-17T12:29:44.959Z,65.54
2023-11-17T12:32:22.560Z,65.86
2023-11-17T12:34:54.676Z,66.22
2023-11-17T12:37:31.645Z,66.33
2023-11-17T12:40:17.058Z,66.29
2023-11-17T12:42:49.425Z,66.15
2023-11-17T12:45:21.345Z,65.84
2023-11-17T12:47:55.260Z,66.37
2023-11-17T12:50:40.191Z,66.42
2023-11-17T12:53:11.729Z,65.98
2023-11-17T12:55:50.324Z,65.79
2023-11-17T12:58:23.258Z,65.64
2023-11-17T13:01:06.510Z,65.79
2023-11-17T13:03:38.229Z,65.85
2023-11-17T13:06:10.254Z,65.91
2023-11-17T13:08:42.483Z,65.83
2023-11-17T13:11:15.465Z,65.40
2023-11-17T13:13:47.962Z,64.61
2023-11-17T13:16:20.718Z,64.44
2023-11-17T13:18:52.500Z,64.74
2023-11-17T13:21:24.699Z,64.75
2023-11-17T13:23:56.238Z,64.59
2023-11-17T13:26:32.759Z,64.49
2023-11-17T13:29:14.027Z,64.59
2023-11-17T13:31:45.407Z,64.79
2023-11-17T13:34:17.229Z,65.15
2023-11-17T13:36:48.869Z,65.15
2023-11-17T13:39:22.959Z,65.25
2023-11-17T13:41:55.820Z,64.84
2023-11-17T13:44:31.177Z,64.75
2023-11-17T13:47:07.228Z,65.01
2023-11-17T13:49:40.629Z,65.14
2023-11-17T13:52:12.760Z,64.68
2023-11-17T13:54:44.483Z,64.94
2023-11-17T13:57:16.820Z,65.46
2023-11-17T13:59:50.809Z,65.58
2023-11-17T14:02:23.101Z,65.43
2023-11-17T14:05:00.876Z,65.00
2023-11-17T14:07:32.549Z,65.10
2023-11-17T14:10:04.376Z,65.33
2023-11-17T14:12:37.284Z,65.14
2023-11-17T14:15:11.828Z,64.89
2023-11-17T14:17:44.847Z,65.07
2023-11-17T14:20:17.049Z,65.14
2023-11-17T14:22:49.339Z,65.08
2023-11-17T14:25:20.959Z,65.21
2023-11-17T14:27:52.505Z,65.13
2023-11-17T14:30:26.474Z,64.50
2023-11-17T14:32:58.038Z,64.64
2023-11-17T14:35:29.766Z,64.58
2023-11-17T14:38:01.531Z,64.64
2023-11-17T14:40:32.934Z,64.25
2023-11-17T14:43:05.692Z,64.14
2023-11-17T14:45:37.082Z,64.21
2023-11-17T14:48:09.149Z,64.47
2023-11-17T14:50:40.687Z,64.50
2023-11-17T14:53:12.041Z,64.45
2023-11-17T14:55:44.213Z,64.55
2023-11-17T14:58:15.790Z,64.74
2023-11-17T15:00:48.007Z,64.81
2023-11-17T15:03:19.693Z,64.93
2023-11-17T15:05:51.867Z,65.01
2023-11-17T15:08:27.816Z,65.13
2023-11-17T15:11:00.452Z,65.07
2023-11-17T15:13:31.923Z,65.35
2023-11-17T15:16:05.787Z,65.37
2023-11-17T15:18:39.569Z,65.53
2023-11-17T15:21:12.319Z,65.61
2023-11-17T15:23:43.590Z,65.86
2023-11-17T15:26:16.015Z,66.02
2023-11-17T15:28:49.921Z,66.06
2023-11-17T15:31:24.310Z,66.14
2023-11-17T15:33:56.514Z,66.47
2023-11-17T15:36:28.559Z,66.51
2023-11-17T15:39:02.152Z,66.61
2023-11-17T15:41:36.280Z,66.81
2023-11-17T15:44:08.694Z,66.89
2023-11-17T15:46:40.820Z,67.30
2023-11-17T15:49:13.339Z,67.53
2023-11-17T15:51:44.999Z,67.54
2023-11-17T15:54:18.101Z,67.78
2023-11-17T15:56:49.683Z,67.95
2023-11-17T15:59:22.322Z,68.13
2023-11-17T16:01:55.947Z,68.29
2023-11-17T16:04:27.562Z,68.30
2023-11-17T16:06:59.100Z,68.35
2023-11-17T16:09:30.514Z,68.50
2023-11-17T16:12:01.897Z,68.65
2023-11-17T16:14:33.271Z,68.71
2023-11-17T16:17:06.370Z,68.88
2023-11-17T16:19:37.835Z,69.12
2023-11-17T16:22:11.951Z,69.14
2023-11-17T16:24:43.282Z,69.30
2023-11-17T16:27:14.607Z,69.36
2023-11-17T16:29:45.935Z,69.37
2023-11-17T16:32:17.794Z,69.52
2023-11-17T16:34:49.524Z,69.47
2023-11-17T16:37:21.449Z,69.47
2023-11-17T16:39:55.760Z,69.49
2023-11-17T16:42:27.080Z,69.76
2023-11-17T16:44:58.433Z,69.76
2023-11-17T16:47:29.840Z,69.76
2023-11-17T16:50:01.311Z,69.83
2023-11-17T16:52:32.780Z,69.97
2023-11-17T16:55:04.308Z,70.06
2023-11-17T16:57:35.588Z,70.19
2023-11-17T17:00:09.761Z,70.13
2023-11-17T17:02:41.149Z,70.19
2023-11-17T17:05:15.489Z,70.31
2023-11-17T17:07:50.597Z,70.45
2023-11-17T17:10:22.930Z,70.62
2023-11-17T17:12:55.865Z,70.61
2023-11-17T17:15:27.850Z,70.65
2023-11-17T17:18:02.885Z,70.73
2023-11-17T17:20:39.249Z,70.74
2023-11-17T17:23:13.089Z,70.84
2023-11-17T17:25:45.957Z,70.98
2023-11-17T17:28:18.370Z,71.14
2023-11-17T17:30:49.728Z,71.33
2023-11-17T17:33:21.155Z,71.49
2023-11-17T17:35:52.816Z,71.81
2023-11-17T17:38:24.670Z,71.89
2023-11-17T17:40:58.245Z,72.05
2023-11-17T17:43:29.660Z,72.20
2023-11-17T17:46:01.012Z,72.01
2023-11-17T17:48:33.355Z,72.17
2023-11-17T17:51:05.365Z,72.35
2023-11-17T17:53:37.211Z,72.49
2023-11-17T17:56:10.229Z,72.58
2023-11-17T17:58:41.574Z,72.75
2023-11-17T18:01:13.022Z,72.52
2023-11-17T18:03:44.543Z,72.75
2023-11-17T18:06:17.710Z,72.69
2023-11-17T18:08:47.622Z,72.88
2023-11-17T18:11:22.191Z,72.81
2023-11-17T18:13:54.685Z,72.70
2023-11-17T18:16:26.239Z,72.85
2023-11-17T18:18:58.145Z,72.77
2023-11-17T18:21:29.720Z,72.93
2023-11-17T18:24:01.058Z,72.95
2023-11-17T18:26:38.597Z,72.92
2023-11-17T18:29:18.152Z,72.89
2023-11-17T18:31:50.297Z,72.99
2023-11-17T18:34:23.356Z,73.06
2023-11-17T18:36:53.437Z,73.05
2023-11-17T18:39:26.881Z,73.06
2023-11-17T18:42:05.651Z,73.10
2023-11-17T18:44:37.577Z,73.28
2023-11-17T18:47:09.144Z,73.23
2023-11-17T18:49:40.583Z,73.34
2023-11-17T18:52:12.019Z,73.36
2023-11-17T18:54:43.368Z,73.52
2023-11-17T18:57:16.858Z,73.53
2023-11-17T18:59:49.616Z,73.50
2023-11-17T19:02:23.168Z,73.46
2023-11-17T19:04:55.222Z,73.47
2023-11-17T19:07:27.293Z,73.36
2023-11-17T19:09:59.047Z,73.56
2023-11-17T19:12:32.719Z,73.50
2023-11-17T19:15:07.222Z,73.57
2023-11-17T19:17:40.033Z,73.47
2023-11-17T19:20:13.252Z,73.45
2023-11-17T19:22:46.805Z,73.31
2023-11-17T19:25:18.544Z,73.30
2023-11-17T19:27:49.798Z,73.51
2023-11-17T19:30:20.975Z,73.81
2023-11-17T19:32:54.894Z,73.96
2023-11-17T19:35:26.177Z,74.10
2023-11-17T19:37:58.364Z,74.16
2023-11-17T19:40:29.756Z,74.21
2023-11-17T19:43:01.030Z,74.05
2023-11-17T19:45:32.397Z,74.06
2023-11-17T19:48:03.763Z,74.09
2023-11-17T19:50:35.738Z,74.08
2023-11-17T19:53:06.981Z,73.97
2023-11-17T19:55:38.564Z,74.01
2023-11-17T19:58:10.772Z,73.95
2023-11-17T20:00:43.190Z,73.84
2023-11-17T20:03:14.933Z,73.78
2023-11-17T20:05:47.498Z,73.66
2023-11-17T20:08:21.252Z,73.73
2023-11-17T20:10:52.652Z,73.75
2023-11-17T20:13:26.100Z,73.68
2023-11-17T20:15:57.990Z,73.61
2023-11-17T20:18:29.364Z,73.58
2023-11-17T20:21:00.679Z,73.63
2023-11-17T20:23:31.927Z,73.69
2023-11-17T20:26:06.170Z,73.88
2023-11-17T20:28:37.526Z,73.89
2023-11-17T20:31:08.958Z,73.93
2023-11-17T20:33:41.117Z,74.01
2023-11-17T20:36:21.535Z,73.88
2023-11-17T20:38:53.114Z,73.95
2023-11-17T20:41:25.058Z,73.74
2023-11-17T20:43:56.628Z,73.75
2023-11-17T20:46:29.146Z,73.86
2023-11-17T20:49:00.603Z,73.91
2023-11-17T20:51:32.142Z,73.88
2023-11-17T20:54:06.032Z,73.89
2023-11-17T20:56:38.803Z,73.89
2023-11-17T20:59:13.113Z,73.95
2023-11-17T21:01:46.551Z,73.96
2023-11-17T21:04:18.082Z,74.02
2023-11-17T21:06:51.300Z,74.05
2023-11-17T21:09:23.857Z,74.13
2023-11-17T21:11:55.534Z,74.37
2023-11-17T21:14:26.940Z,74.36
2023-11-17T21:16:58.232Z,74.67
2023-11-17T21:19:30.488Z,74.80
2023-11-17T21:22:01.942Z,74.92
2023-11-17T21:24:33.238Z,75.07
2023-11-17T21:27:07.884Z,75.11
2023-11-17T21:29:39.172Z,74.96
2023-11-17T21:32:12.536Z,74.81
2023-11-17T21:34:43.987Z,74.70
2023-11-17T21:37:15.594Z,74.69
2023-11-17T21:39:46.844Z,74.69
2023-11-17T21:42:18.177Z,74.75
2023-11-17T21:44:51.324Z,74.85
2023-11-17T21:47:22.758Z,74.70
2023-11-17T21:49:54.178Z,74.74
2023-11-17T21:52:25.580Z,74.68
2023-11-17T21:54:56.875Z,74.57
2023-11-17T21:57:28.267Z,74.54
2023-11-17T21:59:59.495Z,74.74
2023-11-17T22:02:31.615Z,74.75
2023-11-17T22:05:03.084Z,74.83
2023-11-17T22:07:34.567Z,74.84
2023-11-17T22:10:07.309Z,74.72
2023-11-17T22:12:38.830Z,74.63
2023-11-17T22:15:13.369Z,74.56
2023-11-17T22:17:46.444Z,74.61
2023-11-17T22:20:20.085Z,74.92
2023-11-17T22:22:53.702Z,74.86
2023-11-17T22:25:26.683Z,74.90
2023-11-17T22:28:00.340Z,75.06
2023-11-17T22:30:32.163Z,74.86
2023-11-17T22:33:03.905Z,74.82
2023-11-17T22:35:35.580Z,74.82
2023-11-17T22:38:08.071Z,74.89
2023-11-17T22:40:40.140Z,75.05
2023-11-17T22:43:11.434Z,74.95
2023-11-17T22:45:42.742Z,75.08
2023-11-17T22:48:14.229Z,75.15
2023-11-17T22:50:45.558Z,75.27
2023-11-17T22:53:16.840Z,75.44
2023-11-17T22:55:48.133Z,75.56
2023-11-17T22:58:20.279Z,75.52
2023-11-17T23:00:51.707Z,75.54
2023-11-17T23:03:22.991Z,75.79
2023-11-17T23:05:54.439Z,75.88
2023-11-17T23:08:26.011Z,76.07
2023-11-17T23:10:57.334Z,76.09
2023-11-17T23:13:29.180Z,76.17
2023-11-17T23:16:00.498Z,76.28
2023-11-17T23:18:31.772Z,76.35
2023-11-17T23:21:03.918Z,76.28
2023-11-17T23:23:35.260Z,76.16
2023-11-17T23:26:09.449Z,76.16
2023-11-17T23:28:40.818Z,76.13
2023-11-17T23:31:16.054Z,76.34
2023-11-17T23:33:49.882Z,76.42
2023-11-17T23:36:21.210Z,76.64
2023-11-17T23:38:52.410Z,76.58
2023-11-17T23:41:23.694Z,76.66
2023-11-17T23:43:55.840Z,76.85
2023-11-17T23:46:27.894Z,77.34
2023-11-17T23:48:59.430Z,77.53
2023-11-17T23:51:31.700Z,77.65
2023-11-17T23:54:04.241Z,77.75
2023-11-17T23:56:35.920Z,77.74
2023-11-17T23:59:08.079Z,77.76
